createdAt,value
2022-10-26T00:00:02.530Z,99451.44
2022-10-26T00:02:57.682Z,99437.22
2022-10-26T00:05:45.376Z,99456.75
2022-10-26T00:08:31.808Z,99452.84
2022-10-26T00:11:17.501Z,99438.03
2022-10-26T00:14:06.418Z,99446.28
2022-10-26T00:16:53.876Z,99444.84
2022-10-26T00:19:39.879Z,99434.97
2022-10-26T00:22:25.194Z,99441.75
2022-10-26T00:25:10.952Z,99443.19
2022-10-26T00:27:57.653Z,99435.16
2022-10-26T00:30:44.442Z,99437.44
2022-10-26T00:33:32.041Z,99423.66
2022-10-26T00:36:18.328Z,99436.66
2022-10-26T00:39:12.048Z,99445.50
2022-10-26T00:41:57.678Z,99425.13
2022-10-26T00:45:02.009Z,99429.47
2022-10-26T00:48:05.378Z,99431.31
2022-10-26T00:50:58.293Z,99425.13
2022-10-26T00:53:44.196Z,99436.44
2022-10-26T00:56:30.103Z,99447.75
2022-10-26T00:59:21.140Z,99440.31
2022-10-26T01:02:08.010Z,99438.06
2022-10-26T01:04:54.447Z,99448.38
2022-10-26T01:07:40.427Z,99448.97
2022-10-26T01:10:26.369Z,99429.22
2022-10-26T01:13:13.825Z,99432.91
2022-10-26T01:16:17.265Z,99430.63
2022-10-26T01:19:18.134Z,99430.25
2022-10-26T01:22:17.031Z,99430.84
2022-10-26T01:25:22.498Z,99435.97
2022-10-26T01:28:11.654Z,99441.53
2022-10-26T01:31:04.776Z,99429.19
2022-10-26T01:34:00.438Z,99434.34
2022-10-26T01:37:08.666Z,99438.03
2022-10-26T01:40:10.359Z,99430.63
2022-10-26T01:42:59.366Z,99419.53
2022-10-26T01:45:50.637Z,99412.94
2022-10-26T01:48:39.531Z,99447.50
2022-10-26T01:51:26.627Z,99419.13
2022-10-26T01:54:12.401Z,99423.44
2022-10-26T01:56:59.999Z,99427.13
2022-10-26T01:59:49.855Z,99417.28
2022-10-26T02:03:09.157Z,99431.66
2022-10-26T02:05:54.591Z,99428.19
2022-10-26T02:08:50.756Z,99440.97
2022-10-26T02:11:49.376Z,99426.16
2022-10-26T02:14:41.502Z,99428.84
2022-10-26T02:17:52.009Z,99426.16
2022-10-26T02:20:44.599Z,99432.53
2022-10-26T02:23:32.948Z,99424.72
2022-10-26T02:26:21.719Z,99438.66
2022-10-26T02:29:11.970Z,99425.09
2022-10-26T02:31:59.199Z,99422.22
2022-10-26T02:34:47.806Z,99425.91
2022-10-26T02:37:36.827Z,99435.31
2022-10-26T02:40:28.577Z,99432.84
2022-10-26T02:43:19.494Z,99466.34
2022-10-26T02:46:31.413Z,99415.16
2022-10-26T02:49:17.233Z,99429.97
2022-10-26T02:52:08.330Z,99427.75
2022-10-26T02:55:09.692Z,99447.91
2022-10-26T02:57:59.112Z,99414.41
2022-10-26T03:00:46.187Z,99416.81
2022-10-26T03:03:32.565Z,99419.28
2022-10-26T03:06:18.252Z,99419.53
2022-10-26T03:09:04.623Z,99416.25
2022-10-26T03:11:53.979Z,99434.16
2022-10-26T03:14:39.461Z,99431.25
2022-10-26T03:17:27.305Z,99427.59
2022-10-26T03:20:12.735Z,99431.50
2022-10-26T03:22:58.256Z,99420.56
2022-10-26T03:25:47.067Z,99422.25
2022-10-26T03:28:32.490Z,99427.19
2022-10-26T03:31:18.239Z,99420.59
2022-10-26T03:34:06.059Z,99439.53
2022-10-26T03:36:51.613Z,99436.66
2022-10-26T03:39:37.136Z,99419.78
2022-10-26T03:42:23.251Z,99430.25
2022-10-26T03:45:09.428Z,99416.28
2022-10-26T03:48:04.608Z,99406.63
2022-10-26T03:50:50.439Z,99412.16
2022-10-26T03:53:35.663Z,99428.03
2022-10-26T03:56:21.192Z,99403.13
2022-10-26T03:59:07.416Z,99411.34
2022-10-26T04:01:58.023Z,99394.88
2022-10-26T04:04:44.030Z,99410.75
2022-10-26T04:07:29.844Z,99404.75
2022-10-26T04:10:15.564Z,99422.66
2022-10-26T04:13:00.987Z,99407.00
2022-10-26T04:15:50.234Z,99421.00
2022-10-26T04:18:36.205Z,99425.72
2022-10-26T04:21:21.798Z,99435.41
2022-10-26T04:24:11.087Z,99447.31
2022-10-26T04:26:56.703Z,99422.22
2022-10-26T04:29:45.006Z,99433.72
2022-10-26T04:32:32.181Z,99445.88
2022-10-26T04:35:18.983Z,99453.28
2022-10-26T04:38:04.560Z,99432.06
2022-10-26T04:40:52.161Z,99464.59
2022-10-26T04:43:37.410Z,99442.75
2022-10-26T04:46:23.058Z,99450.16
2022-10-26T04:49:13.191Z,99442.56
2022-10-26T04:52:03.582Z,99455.72
2022-10-26T04:54:48.982Z,99451.19
2022-10-26T04:57:34.486Z,99458.78
2022-10-26T05:00:21.644Z,99456.50
2022-10-26T05:03:07.152Z,99454.03
2022-10-26T05:05:54.715Z,99426.09
2022-10-26T05:08:41.528Z,99448.91
2022-10-26T05:11:26.969Z,99443.75
2022-10-26T05:14:14.047Z,99445.59
2022-10-26T05:16:59.486Z,99448.66
2022-10-26T05:19:50.253Z,99443.50
2022-10-26T05:22:44.048Z,99453.97
2022-10-26T05:25:29.840Z,99432.38
2022-10-26T05:28:20.024Z,99439.94
2022-10-26T05:31:05.721Z,99435.59
2022-10-26T05:33:51.512Z,99463.00
2022-10-26T05:36:40.576Z,99447.72
2022-10-26T05:39:27.265Z,99446.03
2022-10-26T05:42:12.827Z,99443.09
2022-10-26T05:44:58.591Z,99431.34
2022-10-26T05:47:44.730Z,99442.66
2022-10-26T05:50:34.088Z,99445.72
2022-10-26T05:53:19.754Z,99438.06
2022-10-26T05:56:08.533Z,99451.97
2022-10-26T05:58:56.775Z,99441.00
2022-10-26T06:01:59.404Z,99448.56
2022-10-26T06:04:53.823Z,99451.19
2022-10-26T06:07:39.869Z,99450.38
2022-10-26T06:10:25.926Z,99452.53
2022-10-26T06:13:36.301Z,99464.94
2022-10-26T06:16:39.646Z,99460.22
2022-10-26T06:19:49.496Z,99434.88
2022-10-26T06:22:59.518Z,99456.25
2022-10-26T06:26:25.213Z,99457.34
2022-10-26T06:29:38.179Z,99460.47
2022-10-26T06:32:23.561Z,99452.63
2022-10-26T06:35:11.474Z,99447.31
2022-10-26T06:37:58.595Z,99442.13
2022-10-26T06:40:45.297Z,99448.22
2022-10-26T06:43:35.916Z,99455.09
2022-10-26T06:46:41.252Z,99461.38
2022-10-26T06:49:46.335Z,99453.41
2022-10-26T06:52:48.354Z,99469.91
2022-10-26T06:55:34.957Z,99451.69
2022-10-26T06:58:21.203Z,99456.25
2022-10-26T07:01:12.050Z,99449.31
2022-10-26T07:03:58.020Z,99461.09
2022-10-26T07:06:44.273Z,99448.75
2022-10-26T07:09:29.764Z,99454.50
2022-10-26T07:12:15.511Z,99457.53
2022-10-26T07:15:01.049Z,99449.41
2022-10-26T07:17:46.821Z,99446.91
2022-10-26T07:20:33.231Z,99442.00
2022-10-26T07:23:19.132Z,99443.44
2022-10-26T07:26:04.603Z,99446.50
2022-10-26T07:28:50.046Z,99461.59
2022-10-26T07:31:36.386Z,99452.56
2022-10-26T07:34:21.744Z,99439.19
2022-10-26T07:37:07.212Z,99462.00
2022-10-26T07:39:53.915Z,99450.97
2022-10-26T07:42:41.064Z,99442.53
2022-10-26T07:45:29.170Z,99454.44
2022-10-26T07:48:15.498Z,99455.69
2022-10-26T07:51:02.984Z,99465.63
2022-10-26T07:53:49.306Z,99446.75
2022-10-26T07:56:34.827Z,99455.66
2022-10-26T07:59:21.476Z,99429.19
2022-10-26T08:02:11.810Z,99444.56
2022-10-26T08:04:57.438Z,99447.22
2022-10-26T08:07:42.970Z,99411.00
2022-10-26T08:10:32.194Z,99441.34
2022-10-26T08:13:22.941Z,99445.09
2022-10-26T08:16:09.181Z,99412.22
2022-10-26T08:18:55.004Z,99455.09
2022-10-26T08:21:59.234Z,99451.22
2022-10-26T08:24:44.969Z,99444.44
2022-10-26T08:27:30.521Z,99441.78
2022-10-26T08:30:16.333Z,99454.31
2022-10-26T08:33:02.680Z,99454.16
2022-10-26T08:35:49.308Z,99450.66
2022-10-26T08:38:34.841Z,99462.25
2022-10-26T08:41:26.976Z,99483.59
2022-10-26T08:44:17.638Z,99468.91
2022-10-26T08:47:12.268Z,99450.50
2022-10-26T08:50:07.373Z,99444.78
2022-10-26T08:53:12.150Z,99456.13
2022-10-26T08:56:24.596Z,99458.44
2022-10-26T08:59:34.077Z,99457.13
2022-10-26T09:02:19.498Z,99454.69
2022-10-26T09:05:05.256Z,99451.88
2022-10-26T09:07:50.999Z,99466.28
2022-10-26T09:11:06.044Z,99459.94
2022-10-26T09:14:11.494Z,99435.72
2022-10-26T09:17:09.012Z,99457.13
2022-10-26T09:20:18.891Z,99473.56
2022-10-26T09:23:07.772Z,99472.75
2022-10-26T09:29:13.538Z,99469.28
2022-10-26T09:32:03.133Z,99442.78
2022-10-26T09:34:56.789Z,99465.28
2022-10-26T09:37:53.840Z,99452.84
2022-10-26T09:40:52.936Z,99467.75
2022-10-26T09:43:57.366Z,99464.69
2022-10-26T09:47:07.532Z,99458.13
2022-10-26T09:50:07.374Z,99460.47
2022-10-26T09:52:58.663Z,99455.84
2022-10-26T09:55:46.350Z,99466.97
2022-10-26T09:58:36.791Z,99461.47
2022-10-26T10:01:22.568Z,99459.22
2022-10-26T10:04:33.389Z,99459.78
2022-10-26T10:07:22.008Z,99470.28
2022-10-26T10:10:35.241Z,99464.03
2022-10-26T10:13:34.324Z,99463.53
2022-10-26T10:16:24.334Z,99472.59
2022-10-26T10:19:19.028Z,99450.50
2022-10-26T10:22:08.947Z,99429.88
2022-10-26T10:25:03.908Z,99453.44
2022-10-26T10:27:51.625Z,99451.56
2022-10-26T10:30:43.042Z,99435.31
2022-10-26T10:33:31.328Z,99450.97
2022-10-26T10:36:17.360Z,99442.97
2022-10-26T10:39:04.702Z,99430.69
2022-10-26T10:41:55.095Z,99458.19
2022-10-26T10:44:48.402Z,99454.50
2022-10-26T10:50:33.043Z,99457.47
2022-10-26T10:54:09.704Z,99451.91
2022-10-26T10:57:10.664Z,99431.09
2022-10-26T11:00:08.998Z,99455.34
2022-10-26T11:03:23.345Z,99451.19
2022-10-26T11:06:43.490Z,99464.78
2022-10-26T11:09:33.858Z,99459.28
2022-10-26T11:15:26.190Z,99472.53
2022-10-26T11:18:27.021Z,99441.19
2022-10-26T11:21:31.887Z,99446.09
2022-10-26T11:24:25.763Z,99453.22
2022-10-26T11:27:28.354Z,99441.84
2022-10-26T11:30:21.787Z,99453.78
2022-10-26T11:33:19.622Z,99448.56
2022-10-26T11:36:17.286Z,99444.59
2022-10-26T11:39:13.241Z,99447.22
2022-10-26T11:42:14.926Z,99432.25
2022-10-26T11:45:11.879Z,99419.66
2022-10-26T11:48:10.490Z,99438.63
2022-10-26T11:51:02.269Z,99432.56
2022-10-26T11:53:56.731Z,99429.09
2022-10-26T11:57:13.955Z,99429.91
2022-10-26T12:00:07.230Z,99430.41
2022-10-26T12:02:59.722Z,99423.03
2022-10-26T12:06:05.768Z,99436.09
2022-10-26T12:09:15.136Z,99434.47
2022-10-26T12:12:06.814Z,99424.03
2022-10-26T12:15:01.025Z,99430.41
2022-10-26T12:17:57.937Z,99414.16
2022-10-26T12:21:08.653Z,99419.09
2022-10-26T12:23:57.599Z,99426.81
2022-10-26T12:26:43.306Z,99415.13
2022-10-26T12:30:07.534Z,99422.66
2022-10-26T12:32:53.001Z,99432.75
2022-10-26T12:36:01.658Z,99428.53
2022-10-26T12:38:52.675Z,99421.16
2022-10-26T12:41:41.155Z,99418.84
2022-10-26T12:44:55.461Z,99427.97
2022-10-26T12:47:47.340Z,99420.34
2022-10-26T12:50:32.922Z,99422.69
2022-10-26T12:53:29.871Z,99433.59
2022-10-26T12:56:24.276Z,99426.47
2022-10-26T12:59:15.731Z,99423.31
2022-10-26T13:02:13.795Z,99413.00
2022-10-26T13:05:24.343Z,99405.50
2022-10-26T13:11:36.749Z,99400.84
2022-10-26T13:14:36.650Z,99415.44
2022-10-26T13:17:39.787Z,99405.84
2022-10-26T13:20:26.011Z,99442.03
2022-10-26T13:23:11.815Z,99420.94
2022-10-26T13:25:58.252Z,99405.38
2022-10-26T13:29:02.147Z,99420.25
2022-10-26T13:31:48.857Z,99411.72
2022-10-26T13:34:38.957Z,99415.28
2022-10-26T13:37:57.179Z,99418.22
2022-10-26T13:40:45.214Z,99427.06
2022-10-26T13:43:38.817Z,99418.47
2022-10-26T13:46:25.193Z,99405.47
2022-10-26T13:52:07.788Z,99421.19
2022-10-26T13:54:58.605Z,99452.13
2022-10-26T13:57:57.941Z,99439.38
2022-10-26T14:00:43.491Z,99424.34
2022-10-26T14:03:37.138Z,99433.91
2022-10-26T14:06:38.551Z,99414.22
2022-10-26T14:09:32.692Z,99410.44
2022-10-26T14:12:20.744Z,99409.81
2022-10-26T14:15:07.427Z,99423.69
2022-10-26T14:17:53.639Z,99428.88
2022-10-26T14:20:41.773Z,99433.47
2022-10-26T14:23:47.137Z,99431.25
2022-10-26T14:26:41.709Z,99424.91
2022-10-26T14:29:39.105Z,99436.53
2022-10-26T14:32:41.556Z,99436.59
2022-10-26T14:35:31.856Z,99439.28
2022-10-26T14:38:37.866Z,99422.28
2022-10-26T14:41:25.301Z,99415.09
2022-10-26T14:44:18.746Z,99458.75
2022-10-26T14:47:06.402Z,99410.41
2022-10-26T14:49:52.589Z,99458.81
2022-10-26T14:53:09.198Z,99436.06
2022-10-26T14:56:08.888Z,99440.03
2022-10-26T14:58:55.428Z,99437.78
2022-10-26T15:01:42.286Z,99442.69
2022-10-26T15:04:55.649Z,99444.19
2022-10-26T15:07:41.209Z,99406.19
2022-10-26T15:10:55.380Z,99434.88
2022-10-26T15:13:51.481Z,99444.69
2022-10-26T15:16:42.430Z,99435.47
2022-10-26T15:19:36.251Z,99427.84
2022-10-26T15:22:22.096Z,99436.97
2022-10-26T15:25:15.552Z,99429.72
2022-10-26T15:28:02.115Z,99429.13
2022-10-26T15:30:52.570Z,99423.09
2022-10-26T15:33:41.001Z,99412.53
2022-10-26T15:36:42.388Z,99430.31
2022-10-26T15:39:28.940Z,99438.00
2022-10-26T15:42:14.556Z,99418.25
2022-10-26T15:45:05.320Z,99435.69
2022-10-26T15:47:53.782Z,99427.34
2022-10-26T15:50:42.381Z,99420.97
2022-10-26T15:53:36.069Z,99420.97
2022-10-26T15:56:22.813Z,99450.38
2022-10-26T15:59:09.860Z,99439.03
2022-10-26T16:01:55.453Z,99444.03
2022-10-26T16:04:41.032Z,99428.59
2022-10-26T16:07:34.100Z,99426.63
2022-10-26T16:10:27.102Z,99417.97
2022-10-26T16:13:13.308Z,99438.00
2022-10-26T16:15:59.261Z,99427.78
2022-10-26T16:18:45.218Z,99448.06
2022-10-26T16:21:32.268Z,99413.38
2022-10-26T16:24:17.699Z,99417.25
2022-10-26T16:27:03.274Z,99430.88
2022-10-26T16:29:49.587Z,99434.00
2022-10-26T16:32:35.181Z,99444.50
2022-10-26T16:35:21.948Z,99427.47
2022-10-26T16:38:07.329Z,99424.16
2022-10-26T16:40:52.650Z,99417.78
2022-10-26T16:43:38.192Z,99415.97
2022-10-26T16:46:29.923Z,99425.44
2022-10-26T16:49:15.409Z,99414.41
2022-10-26T16:52:01.501Z,99420.59
2022-10-26T16:54:49.219Z,99429.84
2022-10-26T16:57:34.675Z,99415.25
2022-10-26T17:00:20.855Z,99433.78
2022-10-26T17:03:06.206Z,99431.09
2022-10-26T17:05:51.537Z,99418.75
2022-10-26T17:08:36.994Z,99429.47
2022-10-26T17:11:31.685Z,99422.84
2022-10-26T17:14:18.731Z,99421.63
2022-10-26T17:17:08.490Z,99422.25
2022-10-26T17:19:54.000Z,99414.59
2022-10-26T17:22:39.424Z,99406.59
2022-10-26T17:25:25.624Z,99412.34
2022-10-26T17:28:11.238Z,99431.28
2022-10-26T17:30:56.618Z,99410.69
2022-10-26T17:33:45.383Z,99401.00
2022-10-26T17:36:33.988Z,99409.66
2022-10-26T17:39:19.676Z,99411.91
2022-10-26T17:42:05.952Z,99429.03
2022-10-26T17:44:51.476Z,99411.53
2022-10-26T17:47:39.721Z,99398.94
2022-10-26T17:50:28.232Z,99389.31
2022-10-26T17:53:16.929Z,99418.53
2022-10-26T17:56:04.849Z,99403.69
2022-10-26T17:58:51.855Z,99419.13
2022-10-26T18:01:38.348Z,99419.34
2022-10-26T18:04:24.002Z,99404.91
2022-10-26T18:07:10.148Z,99412.75
2022-10-26T18:09:56.988Z,99405.41
2022-10-26T18:12:46.683Z,99407.44
2022-10-26T18:15:33.476Z,99416.13
2022-10-26T18:18:19.946Z,99401.13
2022-10-26T18:21:05.458Z,99386.78
2022-10-26T18:23:51.156Z,99413.25
2022-10-26T18:26:39.765Z,99412.44
2022-10-26T18:29:25.160Z,99429.13
2022-10-26T18:32:10.763Z,99423.72
2022-10-26T18:34:57.480Z,99415.47
2022-10-26T18:37:43.083Z,99404.97
2022-10-26T18:40:30.095Z,99402.72
2022-10-26T18:43:15.843Z,99411.91
2022-10-26T18:46:01.418Z,99413.00
2022-10-26T18:48:47.111Z,99433.19
2022-10-26T18:51:35.178Z,99427.81
2022-10-26T18:54:21.672Z,99422.84
2022-10-26T18:57:07.006Z,99426.56
2022-10-26T18:59:54.897Z,99420.94
2022-10-26T19:02:51.400Z,99416.66
2022-10-26T19:05:42.254Z,99436.72
2022-10-26T19:08:32.936Z,99429.69
2022-10-26T19:11:27.845Z,99421.41
2022-10-26T19:14:18.621Z,99421.19
2022-10-26T19:17:04.304Z,99432.03
2022-10-26T19:19:49.613Z,99421.97
2022-10-26T19:22:35.283Z,99422.56
2022-10-26T19:25:21.047Z,99417.81
2022-10-26T19:28:06.527Z,99427.66
2022-10-26T19:30:52.222Z,99428.25
2022-10-26T19:33:37.735Z,99441.03
2022-10-26T19:36:25.680Z,99421.84
2022-10-26T19:39:14.328Z,99412.59
2022-10-26T19:42:00.511Z,99423.09
2022-10-26T19:44:46.084Z,99418.34
2022-10-26T19:47:31.677Z,99420.81
2022-10-26T19:50:22.882Z,99433.53
2022-10-26T19:53:08.998Z,99419.28
2022-10-26T19:55:54.593Z,99419.13
2022-10-26T19:58:40.431Z,99402.47
2022-10-26T20:01:27.019Z,99399.41
2022-10-26T20:04:12.584Z,99424.16
2022-10-26T20:06:58.151Z,99438.41
2022-10-26T20:09:43.835Z,99427.22
2022-10-26T20:12:29.387Z,99422.22
2022-10-26T20:15:15.080Z,99425.50
2022-10-26T20:18:03.672Z,99424.47
2022-10-26T20:20:49.456Z,99415.00
2022-10-26T20:23:35.044Z,99411.03
2022-10-26T20:26:21.453Z,99377.25
2022-10-26T20:29:09.419Z,99411.25
2022-10-26T20:31:56.241Z,99422.81
2022-10-26T20:34:44.000Z,99401.19
2022-10-26T20:37:32.162Z,99400.59
2022-10-26T20:40:18.055Z,99416.84
2022-10-26T20:43:03.741Z,99401.56
2022-10-26T20:45:50.960Z,99405.31
2022-10-26T20:48:36.847Z,99409.22
2022-10-26T20:54:35.117Z,99407.94
2022-10-26T20:57:21.602Z,99395.59
2022-10-26T21:00:19.899Z,99396.59
2022-10-26T21:03:05.512Z,99399.66
2022-10-26T21:05:51.152Z,99395.56
2022-10-26T21:08:36.613Z,99381.75
2022-10-26T21:11:22.272Z,99396.38
2022-10-26T21:14:08.429Z,99381.06
2022-10-26T21:16:54.704Z,99395.16
2022-10-26T21:19:40.382Z,99385.09
2022-10-26T21:22:25.661Z,99382.84
2022-10-26T21:25:11.242Z,99374.66
2022-10-26T21:27:58.429Z,99397.47
2022-10-26T21:30:44.898Z,99398.50
2022-10-26T21:33:30.598Z,99399.34
2022-10-26T21:36:17.009Z,99396.44
2022-10-26T21:39:03.821Z,99399.78
2022-10-26T21:41:49.152Z,99397.69
2022-10-26T21:44:42.014Z,99392.16
2022-10-26T21:47:28.578Z,99408.06
2022-10-26T21:50:14.615Z,99393.59
2022-10-26T21:53:00.350Z,99405.16
2022-10-26T21:55:45.793Z,99392.53
2022-10-26T21:58:31.705Z,99384.13
2022-10-26T22:01:27.468Z,99382.25
2022-10-26T22:04:13.378Z,99394.25
2022-10-26T22:06:58.834Z,99390.16
2022-10-26T22:09:55.168Z,99388.50
2022-10-26T22:12:53.617Z,99389.56
2022-10-26T22:15:39.218Z,99391.03
2022-10-26T22:18:24.860Z,99388.63
2022-10-26T22:21:17.891Z,99399.97
2022-10-26T22:24:04.322Z,99394.88
2022-10-26T22:26:52.542Z,99390.81
2022-10-26T22:29:38.216Z,99372.34
2022-10-26T22:32:23.675Z,99376.72
2022-10-26T22:35:28.424Z,99378.88
2022-10-26T22:38:15.570Z,99364.09
2022-10-26T22:41:01.312Z,99363.94
2022-10-26T22:43:51.112Z,99377.94
2022-10-26T22:46:39.904Z,99357.69
2022-10-26T22:49:25.289Z,99375.31
2022-10-26T22:52:10.798Z,99379.69
2022-10-26T22:54:56.982Z,99365.91
2022-10-26T22:57:42.756Z,99362.72
2022-10-26T23:00:28.733Z,99365.81
2022-10-26T23:03:14.675Z,99384.94
2022-10-26T23:06:09.032Z,99368.63
2022-10-26T23:08:54.366Z,99380.44
2022-10-26T23:14:54.370Z,99376.06
2022-10-26T23:17:39.896Z,99379.03
2022-10-26T23:20:25.709Z,99355.50
2022-10-26T23:23:12.191Z,99360.19
2022-10-26T23:25:58.621Z,99361.97
2022-10-26T23:28:43.864Z,99357.22
2022-10-26T23:31:47.505Z,99363.16
2022-10-26T23:34:32.857Z,99357.81
2022-10-26T23:37:18.136Z,99362.88
2022-10-26T23:40:04.138Z,99370.78
2022-10-26T23:42:50.084Z,99356.94
2022-10-26T23:45:35.664Z,99362.06
2022-10-26T23:48:21.280Z,99358.78
2022-10-26T23:51:10.777Z,99370.50
2022-10-26T23:53:56.321Z,99362.94
2022-10-26T23:56:41.736Z,99354.03
2022-10-26T23:59:27.145Z,99355.88
